createdAt,value
2023-04-16T00:00:56.432Z,100481.44
2023-04-16T00:03:23.863Z,100482.38
2023-04-16T00:05:50.773Z,100486.59
2023-04-16T00:08:17.530Z,100481.44
2023-04-16T00:10:43.974Z,100489.94
2023-04-16T00:13:10.588Z,100486.41
2023-04-16T00:15:37.028Z,100487.59
2023-04-16T00:18:03.794Z,100488.34
2023-04-16T00:20:30.270Z,100489.22
2023-04-16T00:22:56.789Z,100488.16
2023-04-16T00:25:23.425Z,100486.28
2023-04-16T00:27:49.909Z,100483.72
2023-04-16T00:30:16.802Z,100485.38
2023-04-16T00:32:43.312Z,100481.13
2023-04-16T00:35:09.819Z,100485.50
2023-04-16T00:37:36.275Z,100484.81
2023-04-16T00:40:02.910Z,100488.41
2023-04-16T00:42:29.641Z,100479.91
2023-04-16T00:44:56.106Z,100486.53
2023-04-16T00:47:22.962Z,100482.50
2023-04-16T00:49:50.170Z,100490.06
2023-04-16T00:52:17.130Z,100490.78
2023-04-16T00:54:43.818Z,100484.00
2023-04-16T00:57:10.819Z,100490.97
2023-04-16T00:59:37.451Z,100495.38
2023-04-16T01:02:04.048Z,100493.50
2023-04-16T01:04:31.410Z,100500.25
2023-04-16T01:06:58.028Z,100496.00
2023-04-16T01:09:24.616Z,100492.47
2023-04-16T01:11:51.243Z,100496.69
2023-04-16T01:14:18.003Z,100498.44
2023-04-16T01:16:44.451Z,100495.13
2023-04-16T01:19:11.181Z,100494.78
2023-04-16T01:21:37.935Z,100499.88
2023-04-16T01:24:04.963Z,100493.16
2023-04-16T01:26:32.368Z,100499.03
2023-04-16T01:29:00.328Z,100497.41
2023-04-16T01:31:27.036Z,100507.53
2023-04-16T01:34:06.786Z,100506.44
2023-04-16T01:36:34.772Z,100509.28
2023-04-16T01:39:01.292Z,100509.19
2023-04-16T01:41:27.867Z,100515.41
2023-04-16T01:43:54.292Z,100515.53
2023-04-16T01:46:27.117Z,100513.00
2023-04-16T01:48:54.923Z,100519.97
2023-04-16T01:51:22.031Z,100522.06
2023-04-16T01:54:09.281Z,100519.34
2023-04-16T01:56:55.910Z,100521.25
2023-04-16T01:59:42.681Z,100531.34
2023-04-16T02:02:30.270Z,100528.63
2023-04-16T02:05:17.130Z,100528.03
2023-04-16T02:08:03.709Z,100530.63
2023-04-16T02:10:30.434Z,100533.09
2023-04-16T02:12:57.509Z,100531.19
2023-04-16T02:15:25.225Z,100529.47
2023-04-16T02:17:56.563Z,100531.19
2023-04-16T02:20:24.646Z,100524.16
2023-04-16T02:22:54.839Z,100529.28
2023-04-16T02:25:24.193Z,100532.88
2023-04-16T02:27:53.187Z,100531.22
2023-04-16T02:30:38.135Z,100526.94
2023-04-16T02:33:07.377Z,100527.72
2023-04-16T02:35:35.333Z,100531.19
2023-04-16T02:38:02.581Z,100526.78
2023-04-16T02:40:30.459Z,100531.00
2023-04-16T02:42:57.859Z,100538.84
2023-04-16T02:45:24.789Z,100541.84
2023-04-16T02:47:51.582Z,100543.63
2023-04-16T02:50:18.787Z,100541.22
2023-04-16T02:52:45.406Z,100547.38
2023-04-16T02:55:12.079Z,100546.50
2023-04-16T02:57:38.581Z,100546.56
2023-04-16T03:00:05.812Z,100543.09
2023-04-16T03:02:32.639Z,100550.53
2023-04-16T03:04:59.303Z,100543.59
2023-04-16T03:07:26.274Z,100545.22
2023-04-16T03:09:52.842Z,100540.88
2023-04-16T03:12:19.321Z,100534.63
2023-04-16T03:14:46.180Z,100543.28
2023-04-16T03:17:12.658Z,100540.63
2023-04-16T03:19:39.448Z,100537.16
2023-04-16T03:22:06.190Z,100545.16
2023-04-16T03:24:33.678Z,100540.81
2023-04-16T03:27:01.996Z,100542.44
2023-04-16T03:29:28.911Z,100539.75
2023-04-16T03:31:56.784Z,100546.63
2023-04-16T03:34:23.573Z,100544.94
2023-04-16T03:36:50.241Z,100551.97
2023-04-16T03:39:17.158Z,100551.84
2023-04-16T03:41:43.586Z,100552.59
2023-04-16T03:44:10.353Z,100556.22
2023-04-16T03:46:36.899Z,100559.47
2023-04-16T03:49:03.724Z,100560.41
2023-04-16T03:51:30.821Z,100556.25
2023-04-16T03:53:57.548Z,100557.44
2023-04-16T03:56:25.656Z,100559.81
2023-04-16T03:58:53.014Z,100559.75
2023-04-16T04:01:19.537Z,100561.38
2023-04-16T04:03:46.730Z,100563.19
2023-04-16T04:06:14.955Z,100560.59
2023-04-16T04:08:41.491Z,100565.78
2023-04-16T04:11:08.350Z,100563.16
2023-04-16T04:13:35.714Z,100567.47
2023-04-16T04:16:03.626Z,100572.66
2023-04-16T04:18:30.144Z,100579.50
2023-04-16T04:20:57.251Z,100572.63
2023-04-16T04:23:27.502Z,100571.94
2023-04-16T04:25:54.106Z,100569.28
2023-04-16T04:28:20.843Z,100567.63
2023-04-16T04:30:47.862Z,100572.75
2023-04-16T04:33:14.341Z,100577.97
2023-04-16T04:35:41.608Z,100584.81
2023-04-16T04:38:08.883Z,100577.97
2023-04-16T04:40:35.730Z,100576.19
2023-04-16T04:43:03.402Z,100579.97
2023-04-16T04:45:31.817Z,100584.00
2023-04-16T04:47:58.841Z,100584.94
2023-04-16T04:50:25.610Z,100589.16
2023-04-16T04:52:52.072Z,100593.47
2023-04-16T04:55:18.635Z,100597.66
2023-04-16T04:57:45.517Z,100596.91
2023-04-16T05:00:12.438Z,100595.19
2023-04-16T05:02:44.704Z,100604.56
2023-04-16T05:05:11.475Z,100602.13
2023-04-16T05:07:38.040Z,100606.47
2023-04-16T05:10:04.915Z,100606.50
2023-04-16T05:12:31.566Z,100603.09
2023-04-16T05:14:58.113Z,100615.50
2023-04-16T05:17:24.705Z,100613.13
2023-04-16T05:19:52.139Z,100613.13
2023-04-16T05:22:19.063Z,100615.81
2023-04-16T05:24:45.843Z,100613.16
2023-04-16T05:27:12.349Z,100614.75
2023-04-16T05:29:38.904Z,100625.81
2023-04-16T05:32:05.578Z,100617.09
2023-04-16T05:34:32.387Z,100622.22
2023-04-16T05:36:58.928Z,100617.72
2023-04-16T05:39:25.673Z,100621.22
2023-04-16T05:41:52.325Z,100623.97
2023-04-16T05:44:18.787Z,100624.03
2023-04-16T05:46:45.430Z,100616.16
2023-04-16T05:49:12.140Z,100628.50
2023-04-16T05:51:39.007Z,100623.19
2023-04-16T05:54:05.508Z,100631.00
2023-04-16T05:56:32.168Z,100636.06
2023-04-16T05:58:58.584Z,100637.75
2023-04-16T06:01:25.430Z,100641.16
2023-04-16T06:03:52.191Z,100641.91
2023-04-16T06:06:18.822Z,100644.66
2023-04-16T06:08:45.244Z,100647.03
2023-04-16T06:11:12.229Z,100647.06
2023-04-16T06:13:39.040Z,100653.31
2023-04-16T06:16:06.292Z,100653.94
2023-04-16T06:18:32.802Z,100659.34
2023-04-16T06:20:59.608Z,100651.59
2023-04-16T06:23:26.191Z,100657.59
2023-04-16T06:25:52.749Z,100656.50
2023-04-16T06:28:19.228Z,100647.91
2023-04-16T06:30:46.766Z,100660.28
2023-04-16T06:33:13.609Z,100661.13
2023-04-16T06:35:40.121Z,100660.91
2023-04-16T06:38:06.878Z,100659.03
2023-04-16T06:40:33.490Z,100661.16
2023-04-16T06:43:00.041Z,100655.72
2023-04-16T06:45:26.808Z,100661.75
2023-04-16T06:47:53.369Z,100672.03
2023-04-16T06:50:19.846Z,100668.69
2023-04-16T06:52:46.632Z,100671.44
2023-04-16T06:55:13.009Z,100676.47
2023-04-16T06:57:40.784Z,100674.72
2023-04-16T07:00:08.027Z,100668.03
2023-04-16T07:02:35.044Z,100676.53
2023-04-16T07:05:01.781Z,100667.88
2023-04-16T07:07:28.253Z,100675.47
2023-04-16T07:09:55.033Z,100675.31
2023-04-16T07:12:22.836Z,100677.91
2023-04-16T07:14:49.632Z,100675.34
2023-04-16T07:17:16.282Z,100676.16
2023-04-16T07:19:42.676Z,100671.50
2023-04-16T07:22:09.250Z,100670.38
2023-04-16T07:24:35.853Z,100667.78
2023-04-16T07:27:02.397Z,100663.31
2023-04-16T07:29:29.019Z,100664.34
2023-04-16T07:31:55.673Z,100672.78
2023-04-16T07:34:22.538Z,100673.59
2023-04-16T07:36:48.990Z,100672.97
2023-04-16T07:39:15.521Z,100674.47
2023-04-16T07:41:43.054Z,100676.69
2023-04-16T07:44:09.568Z,100681.66
2023-04-16T07:46:43.615Z,100679.09
2023-04-16T07:49:13.285Z,100686.34
2023-04-16T07:51:39.767Z,100687.81
2023-04-16T07:54:06.431Z,100688.69
2023-04-16T07:56:32.923Z,100690.91
2023-04-16T07:59:08.009Z,100690.38
2023-04-16T08:01:45.493Z,100691.13
2023-04-16T08:04:12.264Z,100692.66
2023-04-16T08:06:39.001Z,100701.44
2023-04-16T08:09:05.761Z,100693.25
2023-04-16T08:11:32.311Z,100698.59
2023-04-16T08:13:58.918Z,100704.03
2023-04-16T08:16:25.578Z,100703.19
2023-04-16T08:18:52.247Z,100703.38
2023-04-16T08:21:18.778Z,100710.41
2023-04-16T08:23:45.424Z,100719.03
2023-04-16T08:26:11.859Z,100715.69
2023-04-16T08:28:38.544Z,100722.75
2023-04-16T08:31:05.371Z,100721.03
2023-04-16T08:33:32.130Z,100723.72
2023-04-16T08:35:58.782Z,100730.59
2023-04-16T08:38:26.289Z,100729.88
2023-04-16T08:40:54.972Z,100730.72
2023-04-16T08:43:23.715Z,100738.47
2023-04-16T08:45:50.902Z,100744.34
2023-04-16T08:48:20.591Z,100742.63
2023-04-16T08:50:52.294Z,100752.00
2023-04-16T08:53:29.575Z,100749.50
2023-04-16T08:55:59.613Z,100753.50
2023-04-16T08:58:29.584Z,100758.88
2023-04-16T09:00:56.312Z,100763.03
2023-04-16T09:03:22.959Z,100758.97
2023-04-16T09:05:49.574Z,100765.09
2023-04-16T09:08:17.303Z,100772.72
2023-04-16T09:10:43.793Z,100764.94
2023-04-16T09:13:11.635Z,100775.41
2023-04-16T09:15:39.373Z,100773.78
2023-04-16T09:18:05.994Z,100777.06
2023-04-16T09:20:32.523Z,100772.81
2023-04-16T09:22:59.007Z,100777.38
2023-04-16T09:25:26.270Z,100785.00
2023-04-16T09:27:52.749Z,100785.72
2023-04-16T09:30:21.608Z,100784.81
2023-04-16T09:32:48.852Z,100793.53
2023-04-16T09:35:15.769Z,100784.16
2023-04-16T09:37:42.368Z,100785.97
2023-04-16T09:40:09.616Z,100794.41
2023-04-16T09:42:37.152Z,100799.69
2023-04-16T09:45:05.682Z,100796.09
2023-04-16T09:47:44.772Z,100801.59
2023-04-16T09:50:19.117Z,100804.28
2023-04-16T09:52:50.114Z,100805.91
2023-04-16T09:55:16.715Z,100805.19
2023-04-16T09:57:43.286Z,100801.63
2023-04-16T10:00:10.654Z,100809.25
2023-04-16T10:02:42.071Z,100808.44
2023-04-16T10:05:09.472Z,100800.72
2023-04-16T10:07:37.139Z,100811.56
2023-04-16T10:10:05.002Z,100809.19
2023-04-16T10:12:32.659Z,100810.59
2023-04-16T10:14:59.279Z,100808.97
2023-04-16T10:17:26.860Z,100814.94
2023-04-16T10:19:54.661Z,100817.56
2023-04-16T10:22:21.362Z,100821.78
2023-04-16T10:24:48.819Z,100820.72
2023-04-16T10:27:16.598Z,100821.47
2023-04-16T10:29:44.537Z,100812.25
2023-04-16T10:32:11.779Z,100821.78
2023-04-16T10:34:39.001Z,100828.81
2023-04-16T10:37:05.513Z,100821.88
2023-04-16T10:39:37.416Z,100826.91
2023-04-16T10:42:12.317Z,100823.22
2023-04-16T10:44:42.799Z,100829.25
2023-04-16T10:47:13.097Z,100827.53
2023-04-16T10:49:40.436Z,100826.38
2023-04-16T10:52:17.030Z,100817.78
2023-04-16T10:54:43.845Z,100819.63
2023-04-16T10:57:15.994Z,100816.16
2023-04-16T10:59:43.994Z,100821.31
2023-04-16T11:02:18.915Z,100819.44
2023-04-16T11:04:47.589Z,100819.44
2023-04-16T11:07:22.551Z,100823.69
2023-04-16T11:09:52.099Z,100819.38
2023-04-16T11:12:27.664Z,100812.31
2023-04-16T11:14:59.337Z,100823.28
2023-04-16T11:17:29.562Z,100819.81
2023-04-16T11:19:56.451Z,100824.03
2023-04-16T11:22:23.018Z,100818.59
2023-04-16T11:24:57.134Z,100821.94
2023-04-16T11:27:24.465Z,100818.41
2023-04-16T11:30:02.032Z,100821.38
2023-04-16T11:32:32.592Z,100817.56
2023-04-16T11:35:03.388Z,100820.16
2023-04-16T11:37:34.829Z,100820.06
2023-04-16T11:40:04.753Z,100810.44
2023-04-16T11:42:31.254Z,100815.66
2023-04-16T11:45:00.581Z,100817.41
2023-04-16T11:47:27.614Z,100817.00
2023-04-16T11:49:54.200Z,100812.53
2023-04-16T11:52:32.379Z,100810.47
2023-04-16T11:54:59.829Z,100811.88
2023-04-16T11:57:31.083Z,100817.38
2023-04-16T12:00:01.635Z,100817.03
2023-04-16T12:02:43.159Z,100821.88
2023-04-16T12:05:28.701Z,100819.28
2023-04-16T12:07:56.203Z,100816.41
2023-04-16T12:10:22.753Z,100813.00
2023-04-16T12:12:49.543Z,100815.69
2023-04-16T12:15:16.519Z,100814.56
2023-04-16T12:17:43.174Z,100812.84
2023-04-16T12:20:11.996Z,100813.56
2023-04-16T12:22:46.898Z,100811.97
2023-04-16T12:25:15.521Z,100807.81
2023-04-16T12:27:53.266Z,100813.94
2023-04-16T12:30:22.870Z,100809.13
2023-04-16T12:32:52.248Z,100812.34
2023-04-16T12:35:33.117Z,100812.34
2023-04-16T12:37:59.753Z,100816.44
2023-04-16T12:40:26.827Z,100814.75
2023-04-16T12:42:53.265Z,100819.09
2023-04-16T12:45:19.937Z,100816.06
2023-04-16T12:47:46.990Z,100815.97
2023-04-16T12:50:13.629Z,100817.25
2023-04-16T12:52:40.110Z,100813.19
2023-04-16T12:55:07.048Z,100818.78
2023-04-16T12:57:33.599Z,100815.97
2023-04-16T13:00:00.068Z,100823.28
2023-04-16T13:02:27.138Z,100821.03
2023-04-16T13:04:54.290Z,100815.47
2023-04-16T13:07:21.234Z,100819.09
2023-04-16T13:09:47.891Z,100814.56
2023-04-16T13:12:14.378Z,100826.81
2023-04-16T13:14:43.307Z,100817.44
2023-04-16T13:17:11.478Z,100821.75
2023-04-16T13:19:38.132Z,100821.66
2023-04-16T13:22:04.584Z,100822.44
2023-04-16T13:24:31.501Z,100822.38
2023-04-16T13:26:58.216Z,100825.91
2023-04-16T13:29:24.752Z,100824.69
2023-04-16T13:31:51.432Z,100825.75
2023-04-16T13:34:18.209Z,100830.41
2023-04-16T13:36:44.936Z,100827.06
2023-04-16T13:39:11.780Z,100828.78
2023-04-16T13:41:38.738Z,100827.28
2023-04-16T13:44:05.844Z,100832.38
2023-04-16T13:46:32.565Z,100837.59
2023-04-16T13:48:59.380Z,100839.34
2023-04-16T13:51:27.239Z,100838.69
2023-04-16T13:53:55.649Z,100842.94
2023-04-16T13:56:22.383Z,100839.47
2023-04-16T13:58:49.426Z,100843.81
2023-04-16T14:01:17.159Z,100841.00
2023-04-16T14:03:44.153Z,100835.97
2023-04-16T14:06:11.101Z,100842.28
2023-04-16T14:08:38.181Z,100842.94
2023-04-16T14:11:06.477Z,100844.97
2023-04-16T14:13:33.181Z,100843.28
2023-04-16T14:15:59.836Z,100846.03
2023-04-16T14:18:26.468Z,100845.38
2023-04-16T14:20:53.027Z,100847.75
2023-04-16T14:23:19.434Z,100855.53
2023-04-16T14:25:46.190Z,100852.72
2023-04-16T14:28:14.313Z,100850.97
2023-04-16T14:30:42.462Z,100853.34
2023-04-16T14:33:09.126Z,100855.19
2023-04-16T14:35:36.132Z,100863.06
2023-04-16T14:38:02.747Z,100851.66
2023-04-16T14:40:29.515Z,100858.56
2023-04-16T14:42:56.134Z,100848.16
2023-04-16T14:45:23.088Z,100853.22
2023-04-16T14:47:50.863Z,100857.41
2023-04-16T14:50:17.499Z,100865.78
2023-04-16T14:52:44.270Z,100859.56
2023-04-16T14:55:10.795Z,100859.16
2023-04-16T14:57:38.510Z,100860.03
2023-04-16T15:00:11.915Z,100864.53
2023-04-16T15:02:38.808Z,100860.72
2023-04-16T15:05:07.728Z,100858.78
2023-04-16T15:07:34.221Z,100853.44
2023-04-16T15:10:01.013Z,100855.06
2023-04-16T15:12:27.655Z,100847.66
2023-04-16T15:14:54.364Z,100851.81
2023-04-16T15:17:22.980Z,100848.94
2023-04-16T15:19:52.249Z,100852.59
2023-04-16T15:22:19.596Z,100851.50
2023-04-16T15:24:46.599Z,100847.28
2023-04-16T15:27:14.787Z,100846.28
2023-04-16T15:29:41.704Z,100856.06
2023-04-16T15:32:08.541Z,100856.69
2023-04-16T15:34:35.071Z,100859.06
2023-04-16T15:37:01.818Z,100858.91
2023-04-16T15:39:28.235Z,100857.13
2023-04-16T15:42:01.493Z,100856.06
2023-04-16T15:44:28.418Z,100857.00
2023-04-16T15:46:54.917Z,100859.06
2023-04-16T15:49:21.372Z,100860.81
2023-04-16T15:51:48.117Z,100857.41
2023-04-16T15:54:14.809Z,100859.63
2023-04-16T15:56:41.635Z,100863.34
2023-04-16T15:59:08.300Z,100855.78
2023-04-16T16:01:34.918Z,100859.88
2023-04-16T16:04:07.688Z,100847.59
2023-04-16T16:06:34.592Z,100852.19
2023-04-16T16:09:01.670Z,100848.91
2023-04-16T16:11:28.411Z,100855.44
2023-04-16T16:13:55.096Z,100852.13
2023-04-16T16:16:21.926Z,100853.63
2023-04-16T16:18:48.848Z,100850.97
2023-04-16T16:21:15.394Z,100851.88
2023-04-16T16:23:41.963Z,100844.22
2023-04-16T16:26:09.395Z,100850.38
2023-04-16T16:28:39.075Z,100857.09
2023-04-16T16:31:06.774Z,100847.50
2023-04-16T16:33:33.379Z,100854.50
2023-04-16T16:35:59.977Z,100859.91
2023-04-16T16:38:27.155Z,100854.78
2023-04-16T16:40:53.688Z,100857.41
2023-04-16T16:43:20.331Z,100860.09
2023-04-16T16:45:47.245Z,100859.28
2023-04-16T16:48:13.838Z,100864.72
2023-04-16T16:50:40.672Z,100849.06
2023-04-16T16:53:07.514Z,100860.28
2023-04-16T16:55:35.085Z,100857.72
2023-04-16T16:58:01.947Z,100862.06
2023-04-16T17:00:28.952Z,100856.84
2023-04-16T17:02:55.479Z,100857.06
2023-04-16T17:05:22.504Z,100857.94
2023-04-16T17:07:49.065Z,100861.47
2023-04-16T17:10:21.907Z,100858.00
2023-04-16T17:12:49.401Z,100856.94
2023-04-16T17:15:17.551Z,100861.47
2023-04-16T17:17:46.169Z,100859.56
2023-04-16T17:20:12.667Z,100858.06
2023-04-16T17:22:39.931Z,100855.50
2023-04-16T17:25:07.991Z,100861.44
2023-04-16T17:27:34.761Z,100858.88
2023-04-16T17:30:02.480Z,100858.81
2023-04-16T17:32:29.950Z,100856.22
2023-04-16T17:34:56.656Z,100856.22
2023-04-16T17:37:23.474Z,100856.34
2023-04-16T17:39:50.445Z,100865.03
2023-04-16T17:42:17.589Z,100868.50
2023-04-16T17:44:44.392Z,100864.22
2023-04-16T17:47:12.667Z,100877.22
2023-04-16T17:49:39.374Z,100877.13
2023-04-16T17:52:06.419Z,100876.28
2023-04-16T17:54:32.874Z,100891.06
2023-04-16T17:56:59.516Z,100888.41
2023-04-16T17:59:26.388Z,100893.72
2023-04-16T18:01:53.151Z,100888.47
2023-04-16T18:04:19.899Z,100888.63
2023-04-16T18:06:46.651Z,100895.56
2023-04-16T18:09:14.288Z,100896.28
2023-04-16T18:11:40.798Z,100902.44
2023-04-16T18:14:13.189Z,100903.38
2023-04-16T18:16:51.306Z,100906.91
2023-04-16T18:19:20.836Z,100907.84
2023-04-16T18:21:47.482Z,100913.06
2023-04-16T18:24:15.072Z,100911.38
2023-04-16T18:26:41.614Z,100909.63
2023-04-16T18:29:09.146Z,100917.44
2023-04-16T18:31:36.093Z,100914.16
2023-04-16T18:34:02.677Z,100926.25
2023-04-16T18:36:29.432Z,100919.41
2023-04-16T18:39:15.642Z,100915.94
2023-04-16T18:41:43.638Z,100929.03
2023-04-16T18:44:10.892Z,100927.34
2023-04-16T18:46:37.460Z,100923.78
2023-04-16T18:49:04.069Z,100921.16
2023-04-16T18:51:30.723Z,100929.03
2023-04-16T18:53:57.347Z,100924.75
2023-04-16T18:56:23.893Z,100929.97
2023-04-16T18:58:50.540Z,100932.50
2023-04-16T19:01:17.945Z,100928.16
2023-04-16T19:03:45.354Z,100930.97
2023-04-16T19:06:11.904Z,100927.44
2023-04-16T19:08:38.374Z,100930.94
2023-04-16T19:11:04.876Z,100935.53
2023-04-16T19:13:32.305Z,100940.78
2023-04-16T19:15:59.761Z,100931.28
2023-04-16T19:18:26.620Z,100932.06
2023-04-16T19:21:00.489Z,100936.56
2023-04-16T19:23:27.384Z,100939.00
2023-04-16T19:25:56.125Z,100940.00
2023-04-16T19:28:23.439Z,100936.56
2023-04-16T19:30:51.282Z,100938.94
2023-04-16T19:33:18.473Z,100933.75
2023-04-16T19:35:46.278Z,100937.28
2023-04-16T19:38:13.268Z,100938.31
2023-04-16T19:40:40.385Z,100937.41
2023-04-16T19:43:06.897Z,100940.09
2023-04-16T19:45:33.550Z,100942.50
2023-04-16T19:48:00.293Z,100938.47
2023-04-16T19:50:27.036Z,100939.28
2023-04-16T19:52:53.504Z,100937.72
2023-04-16T19:55:20.044Z,100941.91
2023-04-16T19:57:47.808Z,100948.81
2023-04-16T20:00:14.798Z,100946.34
2023-04-16T20:02:41.413Z,100950.47
2023-04-16T20:05:08.517Z,100947.22
2023-04-16T20:07:35.413Z,100944.56
2023-04-16T20:10:02.865Z,100947.91
2023-04-16T20:12:29.453Z,100945.50
2023-04-16T20:14:55.977Z,100952.38
2023-04-16T20:17:23.073Z,100948.91
2023-04-16T20:19:51.123Z,100939.44
2023-04-16T20:22:18.572Z,100941.22
2023-04-16T20:24:47.818Z,100944.63
2023-04-16T20:27:15.261Z,100931.59
2023-04-16T20:29:42.214Z,100941.97
2023-04-16T20:32:08.859Z,100939.44
2023-04-16T20:34:36.528Z,100941.13
2023-04-16T20:37:03.039Z,100942.84
2023-04-16T20:39:34.090Z,100941.03
2023-04-16T20:42:00.812Z,100934.91
2023-04-16T20:44:33.322Z,100937.53
2023-04-16T20:47:00.132Z,100933.31
2023-04-16T20:49:26.646Z,100937.63
2023-04-16T20:51:53.321Z,100930.78
2023-04-16T20:54:19.949Z,100928.22
2023-04-16T20:56:47.139Z,100931.75
2023-04-16T20:59:13.760Z,100929.16
2023-04-16T21:01:40.581Z,100931.75
2023-04-16T21:04:07.876Z,100930.00
2023-04-16T21:06:38.443Z,100926.34
2023-04-16T21:09:05.837Z,100928.88
2023-04-16T21:11:34.557Z,100932.34
2023-04-16T21:14:01.810Z,100938.56
2023-04-16T21:16:29.067Z,100933.44
2023-04-16T21:18:56.364Z,100929.00
2023-04-16T21:21:24.039Z,100934.25
2023-04-16T21:23:50.925Z,100933.47
2023-04-16T21:26:17.498Z,100937.75
2023-04-16T21:28:44.152Z,100932.53
2023-04-16T21:31:11.038Z,100937.88
2023-04-16T21:33:37.649Z,100934.47
2023-04-16T21:36:04.235Z,100937.00
2023-04-16T21:38:30.819Z,100932.78
2023-04-16T21:40:57.401Z,100932.88
2023-04-16T21:43:24.184Z,100931.25
2023-04-16T21:45:53.766Z,100936.72
2023-04-16T21:48:21.034Z,100937.38
2023-04-16T21:50:47.659Z,100936.72
2023-04-16T21:53:14.184Z,100936.78
2023-04-16T21:55:41.728Z,100943.75
2023-04-16T21:58:08.156Z,100937.53
2023-04-16T22:00:34.788Z,100942.66
2023-04-16T22:03:01.394Z,100949.06
2023-04-16T22:05:27.991Z,100950.66
2023-04-16T22:07:54.548Z,100949.94
2023-04-16T22:10:21.182Z,100951.56
2023-04-16T22:12:47.932Z,100951.78
2023-04-16T22:15:14.661Z,100948.22
2023-04-16T22:17:41.421Z,100948.22
2023-04-16T22:20:14.529Z,100945.72
2023-04-16T22:22:42.318Z,100947.41
2023-04-16T22:25:09.665Z,100950.91
2023-04-16T22:27:36.646Z,100944.94
2023-04-16T22:30:04.208Z,100949.22
2023-04-16T22:32:30.865Z,100945.66
2023-04-16T22:34:57.736Z,100943.06
2023-04-16T22:37:24.607Z,100949.34
2023-04-16T22:39:51.370Z,100947.56
2023-04-16T22:42:17.857Z,100949.25
2023-04-16T22:44:44.505Z,100949.41
2023-04-16T22:47:10.946Z,100948.50
2023-04-16T22:49:37.634Z,100947.53
2023-04-16T22:52:04.283Z,100946.66
2023-04-16T22:54:31.924Z,100945.75
2023-04-16T22:56:58.713Z,100942.44
2023-04-16T22:59:25.452Z,100940.66
2023-04-16T23:01:52.851Z,100945.84
2023-04-16T23:04:19.807Z,100941.69
2023-04-16T23:06:46.325Z,100943.47
2023-04-16T23:09:13.323Z,100939.78
2023-04-16T23:11:40.394Z,100942.53
2023-04-16T23:14:07.581Z,100936.41
2023-04-16T23:16:34.173Z,100935.47
2023-04-16T23:19:00.981Z,100937.16
2023-04-16T23:21:27.393Z,100932.94
2023-04-16T23:23:54.283Z,100943.25
2023-04-16T23:26:21.028Z,100941.56
2023-04-16T23:28:47.489Z,100939.81
2023-04-16T23:31:14.149Z,100935.50
2023-04-16T23:33:40.856Z,100937.97
2023-04-16T23:36:07.889Z,100935.28
2023-04-16T23:38:34.529Z,100934.56
2023-04-16T23:41:01.030Z,100937.09
2023-04-16T23:43:27.822Z,100930.16
2023-04-16T23:45:54.263Z,100932.88
2023-04-16T23:48:21.078Z,100934.50
2023-04-16T23:50:47.558Z,100935.44
2023-04-16T23:53:14.018Z,100935.41
2023-04-16T23:55:40.760Z,100939.00
2023-04-16T23:58:07.357Z,100938.94
